sensor_id;sensor_type;location;lat;lon;timestamp;P1;durP1;ratioP1;P2;durP2;ratioP2
31694;SDS011;18289;51.330;4.946;2022-08-03T00:01:39;7.05;;;3.33;;
31694;SDS011;18289;51.330;4.946;2022-08-03T00:04:06;4.82;;;2.97;;
31694;SDS011;18289;51.330;4.946;2022-08-03T00:06:33;6.32;;;3.53;;
31694;SDS011;18289;51.330;4.946;2022-08-03T00:08:58;5.10;;;2.97;;
31694;SDS011;18289;51.330;4.946;2022-08-03T00:11:24;5.47;;;3.60;;
31694;SDS011;18289;51.330;4.946;2022-08-03T00:13:50;5.18;;;3.10;;
31694;SDS011;18289;51.330;4.946;2022-08-03T00:16:16;5.93;;;3.00;;
31694;SDS011;18289;51.330;4.946;2022-08-03T00:18:42;5.40;;;2.85;;
31694;SDS011;18289;51.330;4.946;2022-08-03T00:21:08;4.95;;;3.00;;
31694;SDS011;18289;51.330;4.946;2022-08-03T00:23:34;7.45;;;3.65;;
31694;SDS011;18289;51.330;4.946;2022-08-03T00:26:00;5.25;;;2.88;;
31694;SDS011;18289;51.330;4.946;2022-08-03T00:28:26;9.52;;;3.47;;
31694;SDS011;18289;51.330;4.946;2022-08-03T00:30:52;6.35;;;3.10;;
31694;SDS011;18289;51.330;4.946;2022-08-03T00:33:19;6.90;;;3.42;;
31694;SDS011;18289;51.330;4.946;2022-08-03T00:35:45;5.25;;;3.72;;
31694;SDS011;18289;51.330;4.946;2022-08-03T00:38:11;8.43;;;3.38;;
31694;SDS011;18289;51.330;4.946;2022-08-03T00:40:37;8.07;;;3.47;;
31694;SDS011;18289;51.330;4.946;2022-08-03T00:43:04;6.80;;;3.42;;
31694;SDS011;18289;51.330;4.946;2022-08-03T00:45:38;6.40;;;3.50;;
31694;SDS011;18289;51.330;4.946;2022-08-03T00:48:05;8.50;;;3.50;;
31694;SDS011;18289;51.330;4.946;2022-08-03T00:50:38;6.70;;;3.45;;
31694;SDS011;18289;51.330;4.946;2022-08-03T00:53:05;8.40;;;3.53;;
31694;SDS011;18289;51.330;4.946;2022-08-03T00:55:34;5.25;;;3.60;;
31694;SDS011;18289;51.330;4.946;2022-08-03T00:58:01;5.40;;;3.40;;
31694;SDS011;18289;51.330;4.946;2022-08-03T01:00:31;5.93;;;3.47;;
31694;SDS011;18289;51.330;4.946;2022-08-03T01:02:57;6.28;;;3.70;;
31694;SDS011;18289;51.330;4.946;2022-08-03T01:05:23;5.90;;;3.25;;
31694;SDS011;18289;51.330;4.946;2022-08-03T01:08:02;6.15;;;3.67;;
31694;SDS011;18289;51.330;4.946;2022-08-03T01:13:33;6.68;;;3.53;;
31694;SDS011;18289;51.330;4.946;2022-08-03T01:19:43;6.93;;;3.50;;
31694;SDS011;18289;51.330;4.946;2022-08-03T01:24:49;6.72;;;3.70;;
31694;SDS011;18289;51.330;4.946;2022-08-03T01:30:22;7.90;;;3.92;;
31694;SDS011;18289;51.330;4.946;2022-08-03T01:32:54;6.28;;;3.67;;
31694;SDS011;18289;51.330;4.946;2022-08-03T01:38:21;6.20;;;3.88;;
31694;SDS011;18289;51.330;4.946;2022-08-03T01:40:54;6.78;;;4.38;;
31694;SDS011;18289;51.330;4.946;2022-08-03T01:43:23;8.02;;;4.18;;
31694;SDS011;18289;51.330;4.946;2022-08-03T01:45:54;11.15;;;4.65;;
31694;SDS011;18289;51.330;4.946;2022-08-03T01:48:21;12.38;;;4.90;;
31694;SDS011;18289;51.330;4.946;2022-08-03T01:50:48;10.00;;;4.50;;
31694;SDS011;18289;51.330;4.946;2022-08-03T01:53:16;8.75;;;4.22;;
31694;SDS011;18289;51.330;4.946;2022-08-03T01:55:45;7.03;;;5.15;;
31694;SDS011;18289;51.330;4.946;2022-08-03T01:58:14;5.85;;;3.78;;
31694;SDS011;18289;51.330;4.946;2022-08-03T02:00:41;6.05;;;4.05;;
31694;SDS011;18289;51.330;4.946;2022-08-03T02:03:07;11.13;;;4.18;;
31694;SDS011;18289;51.330;4.946;2022-08-03T02:05:36;9.73;;;4.13;;
31694;SDS011;18289;51.330;4.946;2022-08-03T02:08:04;6.38;;;3.67;;
31694;SDS011;18289;51.330;4.946;2022-08-03T02:10:33;8.20;;;4.13;;
31694;SDS011;18289;51.330;4.946;2022-08-03T02:13:02;8.00;;;4.28;;
31694;SDS011;18289;51.330;4.946;2022-08-03T02:15:31;6.07;;;3.30;;
31694;SDS011;18289;51.330;4.946;2022-08-03T02:18:00;7.43;;;3.60;;
31694;SDS011;18289;51.330;4.946;2022-08-03T02:20:28;5.85;;;3.33;;
31694;SDS011;18289;51.330;4.946;2022-08-03T02:22:57;6.75;;;3.38;;
31694;SDS011;18289;51.330;4.946;2022-08-03T02:25:23;5.65;;;3.33;;
31694;SDS011;18289;51.330;4.946;2022-08-03T02:27:54;5.05;;;3.58;;
31694;SDS011;18289;51.330;4.946;2022-08-03T02:30:24;6.93;;;3.40;;
31694;SDS011;18289;51.330;4.946;2022-08-03T02:32:57;7.75;;;4.15;;
31694;SDS011;18289;51.330;4.946;2022-08-03T02:35:25;8.18;;;4.25;;
31694;SDS011;18289;51.330;4.946;2022-08-03T02:37:55;6.38;;;3.55;;
31694;SDS011;18289;51.330;4.946;2022-08-03T02:40:23;5.03;;;3.03;;
31694;SDS011;18289;51.330;4.946;2022-08-03T02:45:21;5.28;;;3.25;;
31694;SDS011;18289;51.330;4.946;2022-08-03T02:47:50;4.97;;;2.97;;
31694;SDS011;18289;51.330;4.946;2022-08-03T02:50:19;8.30;;;3.45;;
31694;SDS011;18289;51.330;4.946;2022-08-03T02:52:46;4.97;;;3.30;;
31694;SDS011;18289;51.330;4.946;2022-08-03T02:55:13;5.85;;;4.03;;
31694;SDS011;18289;51.330;4.946;2022-08-03T02:57:40;6.53;;;3.42;;
31694;SDS011;18289;51.330;4.946;2022-08-03T03:00:08;5.30;;;3.47;;
31694;SDS011;18289;51.330;4.946;2022-08-03T03:02:35;5.20;;;3.33;;
31694;SDS011;18289;51.330;4.946;2022-08-03T03:05:02;5.68;;;3.30;;
31694;SDS011;18289;51.330;4.946;2022-08-03T03:07:28;12.30;;;3.70;;
31694;SDS011;18289;51.330;4.946;2022-08-03T03:09:55;7.25;;;4.00;;
31694;SDS011;18289;51.330;4.946;2022-08-03T03:12:21;4.45;;;3.00;;
31694;SDS011;18289;51.330;4.946;2022-08-03T03:14:48;4.40;;;3.20;;
31694;SDS011;18289;51.330;4.946;2022-08-03T03:17:14;7.53;;;3.10;;
31694;SDS011;18289;51.330;4.946;2022-08-03T03:19:42;4.68;;;3.00;;
31694;SDS011;18289;51.330;4.946;2022-08-03T03:22:09;5.65;;;3.03;;
31694;SDS011;18289;51.330;4.946;2022-08-03T03:24:36;4.40;;;2.65;;
31694;SDS011;18289;51.330;4.946;2022-08-03T03:27:03;4.60;;;3.17;;
31694;SDS011;18289;51.330;4.946;2022-08-03T03:29:31;6.47;;;3.10;;
31694;SDS011;18289;51.330;4.946;2022-08-03T03:31:57;9.80;;;3.78;;
31694;SDS011;18289;51.330;4.946;2022-08-03T03:34:23;5.32;;;3.25;;
31694;SDS011;18289;51.330;4.946;2022-08-03T03:36:49;7.85;;;3.40;;
31694;SDS011;18289;51.330;4.946;2022-08-03T03:39:14;5.18;;;3.25;;
31694;SDS011;18289;51.330;4.946;2022-08-03T03:41:40;3.58;;;2.83;;
31694;SDS011;18289;51.330;4.946;2022-08-03T03:44:06;4.43;;;2.85;;
31694;SDS011;18289;51.330;4.946;2022-08-03T03:46:32;6.85;;;3.65;;
31694;SDS011;18289;51.330;4.946;2022-08-03T03:48:58;6.65;;;2.80;;
31694;SDS011;18289;51.330;4.946;2022-08-03T03:51:23;5.03;;;3.13;;
31694;SDS011;18289;51.330;4.946;2022-08-03T03:53:53;3.38;;;2.67;;
31694;SDS011;18289;51.330;4.946;2022-08-03T03:56:20;5.00;;;2.85;;
31694;SDS011;18289;51.330;4.946;2022-08-03T03:58:46;5.70;;;3.22;;
31694;SDS011;18289;51.330;4.946;2022-08-03T04:01:12;5.25;;;3.08;;
31694;SDS011;18289;51.330;4.946;2022-08-03T04:03:37;3.00;;;2.60;;
31694;SDS011;18289;51.330;4.946;2022-08-03T04:06:03;4.78;;;2.75;;
31694;SDS011;18289;51.330;4.946;2022-08-03T04:08:47;5.53;;;2.85;;
31694;SDS011;18289;51.330;4.946;2022-08-03T04:14:33;7.35;;;2.92;;
31694;SDS011;18289;51.330;4.946;2022-08-03T04:17:02;8.80;;;3.25;;
31694;SDS011;18289;51.330;4.946;2022-08-03T04:19:48;5.28;;;3.03;;
31694;SDS011;18289;51.330;4.946;2022-08-03T04:22:17;6.40;;;2.70;;
31694;SDS011;18289;51.330;4.946;2022-08-03T04:24:49;6.00;;;2.85;;
31694;SDS011;18289;51.330;4.946;2022-08-03T04:27:20;6.60;;;2.80;;
31694;SDS011;18289;51.330;4.946;2022-08-03T04:29:49;6.13;;;2.78;;
31694;SDS011;18289;51.330;4.946;2022-08-03T04:32:17;5.00;;;2.85;;
31694;SDS011;18289;51.330;4.946;2022-08-03T04:34:44;4.82;;;2.78;;
31694;SDS011;18289;51.330;4.946;2022-08-03T04:37:11;4.28;;;2.85;;
31694;SDS011;18289;51.330;4.946;2022-08-03T04:39:42;5.28;;;2.85;;
31694;SDS011;18289;51.330;4.946;2022-08-03T04:42:12;5.70;;;2.92;;
31694;SDS011;18289;51.330;4.946;2022-08-03T04:44:40;8.27;;;2.70;;
31694;SDS011;18289;51.330;4.946;2022-08-03T04:47:08;7.43;;;3.05;;
31694;SDS011;18289;51.330;4.946;2022-08-03T04:49:35;6.18;;;3.10;;
31694;SDS011;18289;51.330;4.946;2022-08-03T04:52:02;6.03;;;2.80;;
31694;SDS011;18289;51.330;4.946;2022-08-03T04:54:29;6.95;;;2.80;;
31694;SDS011;18289;51.330;4.946;2022-08-03T04:56:55;8.68;;;3.35;;
31694;SDS011;18289;51.330;4.946;2022-08-03T04:59:21;3.58;;;2.60;;
31694;SDS011;18289;51.330;4.946;2022-08-03T05:01:46;5.85;;;2.65;;
31694;SDS011;18289;51.330;4.946;2022-08-03T05:04:12;8.77;;;3.10;;
31694;SDS011;18289;51.330;4.946;2022-08-03T05:06:38;8.43;;;3.17;;
31694;SDS011;18289;51.330;4.946;2022-08-03T05:09:04;5.60;;;3.35;;
31694;SDS011;18289;51.330;4.946;2022-08-03T05:11:29;9.85;;;3.20;;
31694;SDS011;18289;51.330;4.946;2022-08-03T05:13:55;7.93;;;3.75;;
31694;SDS011;18289;51.330;4.946;2022-08-03T05:16:21;5.75;;;3.25;;
31694;SDS011;18289;51.330;4.946;2022-08-03T05:18:47;9.55;;;3.15;;
31694;SDS011;18289;51.330;4.946;2022-08-03T05:21:12;6.20;;;2.95;;
31694;SDS011;18289;51.330;4.946;2022-08-03T05:23:38;10.45;;;4.05;;
31694;SDS011;18289;51.330;4.946;2022-08-03T05:26:05;4.68;;;3.33;;
31694;SDS011;18289;51.330;4.946;2022-08-03T05:28:31;10.57;;;3.30;;
31694;SDS011;18289;51.330;4.946;2022-08-03T05:30:56;6.20;;;3.15;;
31694;SDS011;18289;51.330;4.946;2022-08-03T05:33:22;5.45;;;3.90;;
31694;SDS011;18289;51.330;4.946;2022-08-03T05:35:48;10.35;;;3.50;;
31694;SDS011;18289;51.330;4.946;2022-08-03T05:38:13;5.97;;;2.67;;
31694;SDS011;18289;51.330;4.946;2022-08-03T05:40:39;7.55;;;3.00;;
31694;SDS011;18289;51.330;4.946;2022-08-03T05:43:05;4.55;;;3.00;;
31694;SDS011;18289;51.330;4.946;2022-08-03T05:45:31;4.35;;;2.70;;
31694;SDS011;18289;51.330;4.946;2022-08-03T05:47:56;9.48;;;3.63;;
31694;SDS011;18289;51.330;4.946;2022-08-03T05:50:22;3.35;;;2.72;;
31694;SDS011;18289;51.330;4.946;2022-08-03T05:52:48;4.63;;;3.08;;
31694;SDS011;18289;51.330;4.946;2022-08-03T05:55:14;8.00;;;2.92;;
31694;SDS011;18289;51.330;4.946;2022-08-03T05:57:40;6.03;;;3.33;;
31694;SDS011;18289;51.330;4.946;2022-08-03T06:00:07;7.03;;;2.83;;
31694;SDS011;18289;51.330;4.946;2022-08-03T06:02:34;3.75;;;2.40;;
31694;SDS011;18289;51.330;4.946;2022-08-03T06:05:00;9.10;;;3.10;;
31694;SDS011;18289;51.330;4.946;2022-08-03T06:07:26;5.18;;;3.00;;
31694;SDS011;18289;51.330;4.946;2022-08-03T06:09:52;5.28;;;2.63;;
31694;SDS011;18289;51.330;4.946;2022-08-03T06:12:18;7.22;;;2.83;;
31694;SDS011;18289;51.330;4.946;2022-08-03T06:14:44;8.02;;;2.92;;
31694;SDS011;18289;51.330;4.946;2022-08-03T06:17:10;5.18;;;2.60;;
31694;SDS011;18289;51.330;4.946;2022-08-03T06:19:35;6.07;;;2.60;;
31694;SDS011;18289;51.330;4.946;2022-08-03T06:22:01;7.82;;;2.65;;
31694;SDS011;18289;51.330;4.946;2022-08-03T06:24:28;11.20;;;2.72;;
31694;SDS011;18289;51.330;4.946;2022-08-03T06:26:53;7.28;;;2.88;;
31694;SDS011;18289;51.330;4.946;2022-08-03T06:29:19;5.38;;;2.22;;
31694;SDS011;18289;51.330;4.946;2022-08-03T06:31:45;4.10;;;2.30;;
31694;SDS011;18289;51.330;4.946;2022-08-03T06:34:11;7.65;;;2.60;;
31694;SDS011;18289;51.330;4.946;2022-08-03T06:36:36;6.30;;;2.40;;
31694;SDS011;18289;51.330;4.946;2022-08-03T06:39:02;6.15;;;2.78;;
31694;SDS011;18289;51.330;4.946;2022-08-03T06:41:28;7.43;;;2.33;;
31694;SDS011;18289;51.330;4.946;2022-08-03T06:43:54;6.70;;;2.22;;
31694;SDS011;18289;51.330;4.946;2022-08-03T06:46:20;7.13;;;2.20;;
31694;SDS011;18289;51.330;4.946;2022-08-03T06:48:46;7.25;;;2.65;;
31694;SDS011;18289;51.330;4.946;2022-08-03T06:51:12;7.22;;;2.38;;
31694;SDS011;18289;51.330;4.946;2022-08-03T06:53:38;7.35;;;2.45;;
31694;SDS011;18289;51.330;4.946;2022-08-03T06:56:04;7.47;;;3.28;;
31694;SDS011;18289;51.330;4.946;2022-08-03T06:58:31;7.80;;;2.63;;
31694;SDS011;18289;51.330;4.946;2022-08-03T07:00:56;7.10;;;2.50;;
31694;SDS011;18289;51.330;4.946;2022-08-03T07:03:22;6.88;;;2.50;;
31694;SDS011;18289;51.330;4.946;2022-08-03T07:05:48;7.50;;;2.60;;
31694;SDS011;18289;51.330;4.946;2022-08-03T07:08:15;9.75;;;2.67;;
31694;SDS011;18289;51.330;4.946;2022-08-03T07:10:42;8.55;;;3.03;;
31694;SDS011;18289;51.330;4.946;2022-08-03T07:13:08;6.70;;;2.65;;
31694;SDS011;18289;51.330;4.946;2022-08-03T07:15:34;10.00;;;2.60;;
31694;SDS011;18289;51.330;4.946;2022-08-03T07:18:00;9.55;;;2.70;;
31694;SDS011;18289;51.330;4.946;2022-08-03T07:20:26;9.55;;;2.88;;
31694;SDS011;18289;51.330;4.946;2022-08-03T07:22:52;4.65;;;2.10;;
31694;SDS011;18289;51.330;4.946;2022-08-03T07:25:18;8.40;;;3.00;;
31694;SDS011;18289;51.330;4.946;2022-08-03T07:27:44;10.23;;;2.42;;
31694;SDS011;18289;51.330;4.946;2022-08-03T07:30:11;7.60;;;2.97;;
31694;SDS011;18289;51.330;4.946;2022-08-03T07:32:37;9.88;;;2.70;;
31694;SDS011;18289;51.330;4.946;2022-08-03T07:35:04;9.32;;;2.65;;
31694;SDS011;18289;51.330;4.946;2022-08-03T07:37:30;6.68;;;2.28;;
31694;SDS011;18289;51.330;4.946;2022-08-03T07:39:57;6.05;;;2.90;;
31694;SDS011;18289;51.330;4.946;2022-08-03T07:42:24;7.75;;;2.40;;
31694;SDS011;18289;51.330;4.946;2022-08-03T07:44:51;6.38;;;3.28;;
31694;SDS011;18289;51.330;4.946;2022-08-03T07:47:17;7.32;;;2.95;;
31694;SDS011;18289;51.330;4.946;2022-08-03T07:49:43;7.25;;;2.22;;
31694;SDS011;18289;51.330;4.946;2022-08-03T07:52:09;9.30;;;2.80;;
31694;SDS011;18289;51.330;4.946;2022-08-03T07:54:55;9.93;;;2.20;;
31694;SDS011;18289;51.330;4.946;2022-08-03T07:57:21;8.35;;;2.72;;
31694;SDS011;18289;51.330;4.946;2022-08-03T07:59:46;11.07;;;2.70;;
31694;SDS011;18289;51.330;4.946;2022-08-03T08:02:12;7.32;;;2.67;;
31694;SDS011;18289;51.330;4.946;2022-08-03T08:04:38;9.55;;;3.15;;
31694;SDS011;18289;51.330;4.946;2022-08-03T08:07:04;4.55;;;2.67;;
31694;SDS011;18289;51.330;4.946;2022-08-03T08:09:30;6.55;;;2.20;;
31694;SDS011;18289;51.330;4.946;2022-08-03T08:11:56;8.10;;;2.30;;
31694;SDS011;18289;51.330;4.946;2022-08-03T08:14:21;5.18;;;2.13;;
31694;SDS011;18289;51.330;4.946;2022-08-03T08:16:47;9.40;;;2.50;;
31694;SDS011;18289;51.330;4.946;2022-08-03T08:19:13;11.15;;;2.72;;
31694;SDS011;18289;51.330;4.946;2022-08-03T08:21:41;7.82;;;2.92;;
31694;SDS011;18289;51.330;4.946;2022-08-03T08:24:07;6.20;;;2.75;;
31694;SDS011;18289;51.330;4.946;2022-08-03T08:26:33;7.07;;;3.03;;
31694;SDS011;18289;51.330;4.946;2022-08-03T08:28:59;7.70;;;2.50;;
31694;SDS011;18289;51.330;4.946;2022-08-03T08:31:25;13.95;;;2.80;;
31694;SDS011;18289;51.330;4.946;2022-08-03T08:33:50;6.82;;;2.45;;
31694;SDS011;18289;51.330;4.946;2022-08-03T08:36:16;8.77;;;2.50;;
31694;SDS011;18289;51.330;4.946;2022-08-03T08:38:42;7.93;;;2.60;;
31694;SDS011;18289;51.330;4.946;2022-08-03T08:41:09;7.32;;;2.83;;
31694;SDS011;18289;51.330;4.946;2022-08-03T08:43:36;8.30;;;2.67;;
31694;SDS011;18289;51.330;4.946;2022-08-03T08:46:02;7.30;;;2.42;;
31694;SDS011;18289;51.330;4.946;2022-08-03T08:48:27;8.35;;;2.55;;
31694;SDS011;18289;51.330;4.946;2022-08-03T08:50:55;14.23;;;3.28;;
31694;SDS011;18289;51.330;4.946;2022-08-03T08:53:23;8.93;;;2.47;;
31694;SDS011;18289;51.330;4.946;2022-08-03T08:55:51;11.38;;;3.17;;
31694;SDS011;18289;51.330;4.946;2022-08-03T08:58:19;5.47;;;2.92;;
31694;SDS011;18289;51.330;4.946;2022-08-03T09:00:47;9.45;;;2.42;;
31694;SDS011;18289;51.330;4.946;2022-08-03T09:03:13;14.60;;;3.17;;
31694;SDS011;18289;51.330;4.946;2022-08-03T09:05:41;8.90;;;2.80;;
31694;SDS011;18289;51.330;4.946;2022-08-03T09:08:07;10.33;;;2.73;;
31694;SDS011;18289;51.330;4.946;2022-08-03T09:10:33;9.82;;;2.60;;
31694;SDS011;18289;51.330;4.946;2022-08-03T09:12:59;9.48;;;2.95;;
31694;SDS011;18289;51.330;4.946;2022-08-03T09:15:26;7.45;;;2.78;;
31694;SDS011;18289;51.330;4.946;2022-08-03T09:17:54;8.67;;;3.27;;
31694;SDS011;18289;51.330;4.946;2022-08-03T09:20:22;9.25;;;2.70;;
31694;SDS011;18289;51.330;4.946;2022-08-03T09:25:25;10.95;;;3.63;;
31694;SDS011;18289;51.330;4.946;2022-08-03T09:28:13;10.77;;;3.17;;
31694;SDS011;18289;51.330;4.946;2022-08-03T09:30:44;9.43;;;3.50;;
31694;SDS011;18289;51.330;4.946;2022-08-03T09:33:23;9.95;;;3.33;;
31694;SDS011;18289;51.330;4.946;2022-08-03T09:35:49;11.38;;;3.00;;
31694;SDS011;18289;51.330;4.946;2022-08-03T09:38:15;11.07;;;3.20;;
31694;SDS011;18289;51.330;4.946;2022-08-03T09:40:51;12.43;;;3.15;;
31694;SDS011;18289;51.330;4.946;2022-08-03T09:43:18;8.27;;;2.83;;
31694;SDS011;18289;51.330;4.946;2022-08-03T09:45:44;10.40;;;3.22;;
31694;SDS011;18289;51.330;4.946;2022-08-03T09:48:20;11.23;;;2.75;;
31694;SDS011;18289;51.330;4.946;2022-08-03T09:50:46;11.80;;;3.38;;
31694;SDS011;18289;51.330;4.946;2022-08-03T09:53:16;9.55;;;3.70;;
31694;SDS011;18289;51.330;4.946;2022-08-03T09:55:53;7.45;;;3.03;;
31694;SDS011;18289;51.330;4.946;2022-08-03T09:58:24;12.43;;;3.10;;
31694;SDS011;18289;51.330;4.946;2022-08-03T10:00:57;8.98;;;2.67;;
31694;SDS011;18289;51.330;4.946;2022-08-03T10:03:25;15.00;;;3.35;;
31694;SDS011;18289;51.330;4.946;2022-08-03T10:05:54;10.70;;;3.58;;
31694;SDS011;18289;51.330;4.946;2022-08-03T10:08:20;7.93;;;3.45;;
31694;SDS011;18289;51.330;4.946;2022-08-03T10:10:47;6.57;;;3.10;;
31694;SDS011;18289;51.330;4.946;2022-08-03T10:13:14;9.23;;;3.75;;
31694;SDS011;18289;51.330;4.946;2022-08-03T10:15:43;8.00;;;3.70;;
31694;SDS011;18289;51.330;4.946;2022-08-03T10:18:09;10.07;;;3.58;;
31694;SDS011;18289;51.330;4.946;2022-08-03T10:20:45;10.40;;;4.00;;
31694;SDS011;18289;51.330;4.946;2022-08-03T10:23:17;9.50;;;3.42;;
31694;SDS011;18289;51.330;4.946;2022-08-03T10:25:45;7.82;;;3.65;;
31694;SDS011;18289;51.330;4.946;2022-08-03T10:28:14;8.65;;;4.30;;
31694;SDS011;18289;51.330;4.946;2022-08-03T10:30:43;8.32;;;4.00;;
31694;SDS011;18289;51.330;4.946;2022-08-03T10:33:19;5.65;;;3.88;;
31694;SDS011;18289;51.330;4.946;2022-08-03T10:35:47;6.93;;;3.78;;
31694;SDS011;18289;51.330;4.946;2022-08-03T10:38:18;7.60;;;4.15;;
31694;SDS011;18289;51.330;4.946;2022-08-03T10:40:46;7.60;;;3.97;;
31694;SDS011;18289;51.330;4.946;2022-08-03T10:43:18;9.73;;;4.50;;
31694;SDS011;18289;51.330;4.946;2022-08-03T10:45:51;9.25;;;3.90;;
31694;SDS011;18289;51.330;4.946;2022-08-03T10:48:17;5.90;;;3.15;;
31694;SDS011;18289;51.330;4.946;2022-08-03T10:50:45;5.82;;;3.08;;
31694;SDS011;18289;51.330;4.946;2022-08-03T10:53:12;7.13;;;3.40;;
31694;SDS011;18289;51.330;4.946;2022-08-03T10:55:44;12.15;;;3.25;;
31694;SDS011;18289;51.330;4.946;2022-08-03T11:01:14;5.30;;;3.60;;
31694;SDS011;18289;51.330;4.946;2022-08-03T11:06:20;6.45;;;3.78;;
31694;SDS011;18289;51.330;4.946;2022-08-03T11:08:49;8.27;;;3.40;;
31694;SDS011;18289;51.330;4.946;2022-08-03T11:11:35;5.07;;;3.00;;
31694;SDS011;18289;51.330;4.946;2022-08-03T11:14:03;6.70;;;3.33;;
31694;SDS011;18289;51.330;4.946;2022-08-03T11:16:43;6.55;;;3.08;;
31694;SDS011;18289;51.330;4.946;2022-08-03T11:19:15;7.53;;;3.20;;
31694;SDS011;18289;51.330;4.946;2022-08-03T11:30:22;8.57;;;3.47;;
31694;SDS011;18289;51.330;4.946;2022-08-03T11:35:11;6.57;;;2.92;;
31694;SDS011;18289;51.330;4.946;2022-08-03T11:43:02;3.30;;;2.58;;
31694;SDS011;18289;51.330;4.946;2022-08-03T11:45:30;7.85;;;2.67;;
31694;SDS011;18289;51.330;4.946;2022-08-03T11:47:56;4.68;;;2.40;;
31694;SDS011;18289;51.330;4.946;2022-08-03T11:50:24;7.05;;;2.88;;
31694;SDS011;18289;51.330;4.946;2022-08-03T11:52:50;2.58;;;2.38;;
31694;SDS011;18289;51.330;4.946;2022-08-03T11:55:17;4.45;;;2.63;;
31694;SDS011;18289;51.330;4.946;2022-08-03T11:57:45;4.82;;;2.50;;
31694;SDS011;18289;51.330;4.946;2022-08-03T12:00:21;3.97;;;2.30;;
31694;SDS011;18289;51.330;4.946;2022-08-03T12:02:55;5.00;;;2.60;;
31694;SDS011;18289;51.330;4.946;2022-08-03T12:05:42;5.55;;;2.25;;
31694;SDS011;18289;51.330;4.946;2022-08-03T12:08:10;3.75;;;2.42;;
31694;SDS011;18289;51.330;4.946;2022-08-03T12:10:37;4.82;;;2.42;;
31694;SDS011;18289;51.330;4.946;2022-08-03T12:13:04;5.95;;;2.65;;
31694;SDS011;18289;51.330;4.946;2022-08-03T12:15:33;7.07;;;2.55;;
31694;SDS011;18289;51.330;4.946;2022-08-03T12:18:00;2.70;;;2.22;;
31694;SDS011;18289;51.330;4.946;2022-08-03T12:20:27;4.10;;;2.00;;
31694;SDS011;18289;51.330;4.946;2022-08-03T12:23:00;2.85;;;2.28;;
31694;SDS011;18289;51.330;4.946;2022-08-03T12:25:28;6.30;;;2.65;;
31694;SDS011;18289;51.330;4.946;2022-08-03T12:28:05;4.82;;;2.53;;
31694;SDS011;18289;51.330;4.946;2022-08-03T12:30:35;3.90;;;2.15;;
31694;SDS011;18289;51.330;4.946;2022-08-03T12:36:00;4.90;;;2.60;;
31694;SDS011;18289;51.330;4.946;2022-08-03T12:38:27;6.25;;;2.50;;
31694;SDS011;18289;51.330;4.946;2022-08-03T12:40:54;5.13;;;2.38;;
31694;SDS011;18289;51.330;4.946;2022-08-03T12:43:24;4.05;;;2.55;;
31694;SDS011;18289;51.330;4.946;2022-08-03T12:45:50;2.42;;;2.20;;
31694;SDS011;18289;51.330;4.946;2022-08-03T12:48:16;4.80;;;2.40;;
31694;SDS011;18289;51.330;4.946;2022-08-03T12:50:41;2.80;;;2.40;;
31694;SDS011;18289;51.330;4.946;2022-08-03T12:53:08;4.93;;;2.35;;
31694;SDS011;18289;51.330;4.946;2022-08-03T12:55:37;4.55;;;2.67;;
31694;SDS011;18289;51.330;4.946;2022-08-03T12:58:04;4.97;;;2.42;;
31694;SDS011;18289;51.330;4.946;2022-08-03T13:00:32;5.10;;;2.40;;
31694;SDS011;18289;51.330;4.946;2022-08-03T13:03:02;4.88;;;2.90;;
31694;SDS011;18289;51.330;4.946;2022-08-03T13:05:30;4.10;;;2.67;;
31694;SDS011;18289;51.330;4.946;2022-08-03T13:07:56;4.43;;;2.60;;
31694;SDS011;18289;51.330;4.946;2022-08-03T13:10:26;3.65;;;2.90;;
31694;SDS011;18289;51.330;4.946;2022-08-03T13:12:53;4.50;;;2.70;;
31694;SDS011;18289;51.330;4.946;2022-08-03T13:15:22;4.25;;;2.80;;
31694;SDS011;18289;51.330;4.946;2022-08-03T13:17:48;3.35;;;2.55;;
31694;SDS011;18289;51.330;4.946;2022-08-03T13:20:13;5.25;;;3.30;;
31694;SDS011;18289;51.330;4.946;2022-08-03T13:22:39;4.28;;;2.60;;
31694;SDS011;18289;51.330;4.946;2022-08-03T13:25:06;3.58;;;3.28;;
31694;SDS011;18289;51.330;4.946;2022-08-03T13:27:32;3.10;;;2.78;;
31694;SDS011;18289;51.330;4.946;2022-08-03T13:29:58;4.15;;;3.60;;
31694;SDS011;18289;51.330;4.946;2022-08-03T13:32:24;4.55;;;3.80;;
31694;SDS011;18289;51.330;4.946;2022-08-03T13:34:50;5.68;;;4.25;;
31694;SDS011;18289;51.330;4.946;2022-08-03T13:37:15;4.78;;;4.43;;
31694;SDS011;18289;51.330;4.946;2022-08-03T13:39:41;4.30;;;3.80;;
31694;SDS011;18289;51.330;4.946;2022-08-03T13:42:07;4.35;;;3.35;;
31694;SDS011;18289;51.330;4.946;2022-08-03T13:44:33;3.72;;;3.30;;
31694;SDS011;18289;51.330;4.946;2022-08-03T13:47:01;5.73;;;3.63;;
31694;SDS011;18289;51.330;4.946;2022-08-03T13:49:27;4.50;;;3.78;;
31694;SDS011;18289;51.330;4.946;2022-08-03T13:51:54;4.25;;;3.85;;
31694;SDS011;18289;51.330;4.946;2022-08-03T13:54:20;4.22;;;3.90;;
31694;SDS011;18289;51.330;4.946;2022-08-03T13:56:46;4.85;;;4.30;;
31694;SDS011;18289;51.330;4.946;2022-08-03T13:59:17;7.20;;;4.93;;
31694;SDS011;18289;51.330;4.946;2022-08-03T14:01:46;4.40;;;4.10;;
31694;SDS011;18289;51.330;4.946;2022-08-03T14:04:13;4.25;;;3.95;;
31694;SDS011;18289;51.330;4.946;2022-08-03T14:06:39;4.80;;;4.40;;
31694;SDS011;18289;51.330;4.946;2022-08-03T14:09:04;6.07;;;4.63;;
31694;SDS011;18289;51.330;4.946;2022-08-03T14:11:30;5.13;;;4.50;;
31694;SDS011;18289;51.330;4.946;2022-08-03T14:13:56;5.43;;;5.00;;
31694;SDS011;18289;51.330;4.946;2022-08-03T14:16:21;5.68;;;5.10;;
31694;SDS011;18289;51.330;4.946;2022-08-03T14:18:47;5.55;;;5.05;;
31694;SDS011;18289;51.330;4.946;2022-08-03T14:21:13;8.25;;;4.75;;
31694;SDS011;18289;51.330;4.946;2022-08-03T14:23:38;5.30;;;4.80;;
31694;SDS011;18289;51.330;4.946;2022-08-03T14:26:05;5.55;;;5.05;;
31694;SDS011;18289;51.330;4.946;2022-08-03T14:28:31;5.53;;;5.20;;
31694;SDS011;18289;51.330;4.946;2022-08-03T14:30:57;5.78;;;5.30;;
31694;SDS011;18289;51.330;4.946;2022-08-03T14:33:24;6.83;;;6.03;;
31694;SDS011;18289;51.330;4.946;2022-08-03T14:35:52;6.85;;;6.43;;
31694;SDS011;18289;51.330;4.946;2022-08-03T14:38:18;6.18;;;5.78;;
31694;SDS011;18289;51.330;4.946;2022-08-03T14:40:45;7.18;;;6.57;;
31694;SDS011;18289;51.330;4.946;2022-08-03T14:43:11;7.25;;;6.75;;
31694;SDS011;18289;51.330;4.946;2022-08-03T14:45:38;6.55;;;5.85;;
31694;SDS011;18289;51.330;4.946;2022-08-03T14:48:05;6.80;;;6.40;;
31694;SDS011;18289;51.330;4.946;2022-08-03T14:50:32;6.55;;;5.95;;
31694;SDS011;18289;51.330;4.946;2022-08-03T14:52:59;6.40;;;6.03;;
31694;SDS011;18289;51.330;4.946;2022-08-03T14:55:31;5.70;;;5.22;;
31694;SDS011;18289;51.330;4.946;2022-08-03T14:57:56;6.22;;;4.20;;
31694;SDS011;18289;51.330;4.946;2022-08-03T15:00:23;5.10;;;4.15;;
31694;SDS011;18289;51.330;4.946;2022-08-03T15:02:49;5.13;;;3.60;;
31694;SDS011;18289;51.330;4.946;2022-08-03T15:05:15;3.38;;;3.17;;
31694;SDS011;18289;51.330;4.946;2022-08-03T15:07:40;5.10;;;3.30;;
31694;SDS011;18289;51.330;4.946;2022-08-03T15:10:06;5.28;;;3.15;;
31694;SDS011;18289;51.330;4.946;2022-08-03T15:12:32;3.92;;;2.88;;
31694;SDS011;18289;51.330;4.946;2022-08-03T15:14:58;3.70;;;2.95;;
31694;SDS011;18289;51.330;4.946;2022-08-03T15:17:23;3.72;;;3.20;;
31694;SDS011;18289;51.330;4.946;2022-08-03T15:19:49;3.40;;;3.20;;
31694;SDS011;18289;51.330;4.946;2022-08-03T15:22:15;3.50;;;3.20;;
31694;SDS011;18289;51.330;4.946;2022-08-03T15:24:41;3.88;;;3.50;;
31694;SDS011;18289;51.330;4.946;2022-08-03T15:27:07;3.58;;;3.28;;
31694;SDS011;18289;51.330;4.946;2022-08-03T15:29:33;7.28;;;3.70;;
31694;SDS011;18289;51.330;4.946;2022-08-03T15:31:58;3.70;;;3.40;;
31694;SDS011;18289;51.330;4.946;2022-08-03T15:34:24;4.35;;;3.60;;
31694;SDS011;18289;51.330;4.946;2022-08-03T15:36:50;6.55;;;4.78;;